createdAt,value
2022-10-26T00:00:36.887Z,74
2022-10-26T00:03:07.426Z,74
2022-10-26T00:05:38.411Z,74
2022-10-26T00:08:09.231Z,74
2022-10-26T00:10:37.898Z,74
2022-10-26T00:13:09.021Z,74
2022-10-26T00:15:39.192Z,74
2022-10-26T00:18:08.785Z,74
2022-10-26T00:20:39.607Z,74
2022-10-26T00:23:11.791Z,74
2022-10-26T00:25:43.497Z,74
2022-10-26T00:28:15.581Z,74
2022-10-26T00:30:47.406Z,74
2022-10-26T00:33:18.631Z,74
2022-10-26T00:35:49.367Z,74
2022-10-26T00:38:19.894Z,74
2022-10-26T00:40:51.901Z,74
2022-10-26T00:43:22.467Z,74
2022-10-26T00:45:53.694Z,74
2022-10-26T00:48:25.548Z,74
2022-10-26T00:50:56.048Z,74
2022-10-26T00:53:26.471Z,73
2022-10-26T00:55:57.074Z,73
2022-10-26T00:58:30.776Z,73
2022-10-26T01:01:02.214Z,74
2022-10-26T01:03:32.433Z,74
2022-10-26T01:06:02.561Z,74
2022-10-26T01:08:33.489Z,74
2022-10-26T01:11:02.972Z,74
2022-10-26T01:13:33.612Z,74
2022-10-26T01:16:04.710Z,73
2022-10-26T01:18:35.689Z,74
2022-10-26T01:21:06.336Z,73
2022-10-26T01:23:37.194Z,73
2022-10-26T01:26:08.648Z,73
2022-10-26T01:28:39.333Z,73
2022-10-26T01:31:09.717Z,73
2022-10-26T01:33:40.109Z,73
2022-10-26T01:36:11.115Z,73
2022-10-26T01:38:42.395Z,73
2022-10-26T01:41:13.309Z,73
2022-10-26T01:43:44.025Z,73
2022-10-26T01:46:15.545Z,73
2022-10-26T01:48:47.387Z,73
2022-10-26T01:51:17.828Z,73
2022-10-26T01:53:47.799Z,73
2022-10-26T01:56:17.280Z,73
2022-10-26T01:58:48.527Z,73
2022-10-26T02:01:19.215Z,73
2022-10-26T02:03:49.780Z,73
2022-10-26T02:06:20.832Z,74
2022-10-26T02:08:51.765Z,74
2022-10-26T02:11:23.147Z,74
2022-10-26T02:13:55.405Z,74
2022-10-26T02:16:27.354Z,73
2022-10-26T02:18:56.733Z,73
2022-10-26T02:21:27.845Z,74
2022-10-26T02:23:59.832Z,74
2022-10-26T02:26:28.593Z,74
2022-10-26T02:28:59.793Z,74
2022-10-26T02:31:30.126Z,74
2022-10-26T02:34:00.805Z,74
2022-10-26T02:36:31.114Z,74
2022-10-26T02:39:02.003Z,74
2022-10-26T02:41:32.727Z,74
2022-10-26T02:44:04.062Z,74
2022-10-26T02:46:34.686Z,73
2022-10-26T02:49:05.583Z,73
2022-10-26T02:51:36.958Z,73
2022-10-26T02:54:07.790Z,74
2022-10-26T02:56:38.728Z,74
2022-10-26T02:59:09.736Z,73
2022-10-26T03:01:40.930Z,73
2022-10-26T03:04:11.740Z,74
2022-10-26T03:06:41.997Z,74
2022-10-26T03:09:13.321Z,73
2022-10-26T03:11:44.167Z,73
2022-10-26T03:14:15.970Z,73
2022-10-26T03:16:46.682Z,73
2022-10-26T03:19:18.297Z,73
2022-10-26T03:21:53.216Z,73
2022-10-26T03:24:25.179Z,73
2022-10-26T03:26:57.043Z,73
2022-10-26T03:29:26.693Z,73
2022-10-26T03:31:55.665Z,73
2022-10-26T03:34:26.479Z,73
2022-10-26T03:36:58.338Z,73
2022-10-26T03:39:28.719Z,74
2022-10-26T03:41:59.898Z,74
2022-10-26T03:44:30.587Z,74
2022-10-26T03:47:01.787Z,74
2022-10-26T03:49:32.551Z,74
2022-10-26T03:52:03.532Z,73
2022-10-26T03:54:34.075Z,73
2022-10-26T03:57:05.049Z,73
2022-10-26T03:59:38.329Z,73
2022-10-26T04:02:09.717Z,73
2022-10-26T04:04:40.581Z,73
2022-10-26T04:07:12.066Z,73
2022-10-26T04:09:43.493Z,73
2022-10-26T04:12:14.451Z,73
2022-10-26T04:14:46.391Z,73
2022-10-26T04:17:17.725Z,73
2022-10-26T04:19:48.149Z,72
2022-10-26T04:22:17.394Z,73
2022-10-26T04:24:47.941Z,73
2022-10-26T04:27:19.085Z,73
2022-10-26T04:29:49.677Z,73
2022-10-26T04:32:20.200Z,73
2022-10-26T04:34:50.746Z,73
2022-10-26T04:37:21.448Z,73
2022-10-26T04:39:52.255Z,73
2022-10-26T04:42:22.779Z,74
2022-10-26T04:44:53.633Z,73
2022-10-26T04:47:24.972Z,73
2022-10-26T04:49:56.262Z,73
2022-10-26T04:52:27.562Z,73
2022-10-26T04:54:58.504Z,73
2022-10-26T04:57:29.227Z,73
2022-10-26T05:00:00.167Z,73
2022-10-26T05:02:30.855Z,73
2022-10-26T05:07:32.545Z,73
2022-10-26T05:10:02.989Z,73
2022-10-26T05:12:34.931Z,73
2022-10-26T05:15:07.900Z,72
2022-10-26T05:17:38.431Z,72
2022-10-26T05:20:07.877Z,73
2022-10-26T05:22:38.996Z,74
2022-10-26T05:25:09.848Z,74
2022-10-26T05:27:41.677Z,74
2022-10-26T05:30:12.824Z,74
2022-10-26T05:32:43.554Z,74
2022-10-26T05:35:14.445Z,73
2022-10-26T05:37:44.775Z,73
2022-10-26T05:40:15.706Z,73
2022-10-26T05:42:47.603Z,73
2022-10-26T05:45:18.430Z,73
2022-10-26T05:47:49.568Z,73
2022-10-26T05:50:19.935Z,72
2022-10-26T05:52:55.265Z,72
2022-10-26T05:55:25.860Z,73
2022-10-26T05:57:56.678Z,72
2022-10-26T06:00:27.289Z,72
2022-10-26T06:02:58.320Z,72
2022-10-26T06:05:30.060Z,72
2022-10-26T06:08:00.868Z,71
2022-10-26T06:10:33.467Z,71
2022-10-26T06:13:04.731Z,70
2022-10-26T06:15:35.643Z,70
2022-10-26T06:18:07.128Z,70
2022-10-26T06:20:37.348Z,69
2022-10-26T06:23:08.150Z,69
2022-10-26T06:25:38.449Z,69
2022-10-26T06:28:09.061Z,69
2022-10-26T06:30:39.716Z,69
2022-10-26T06:33:18.184Z,69
2022-10-26T06:35:42.086Z,69
2022-10-26T06:38:12.374Z,69
2022-10-26T06:40:43.527Z,69
2022-10-26T06:43:14.656Z,69
2022-10-26T06:45:45.281Z,69
2022-10-26T06:48:16.761Z,69
2022-10-26T06:50:46.085Z,69
2022-10-26T06:53:16.696Z,69
2022-10-26T06:55:47.181Z,69
2022-10-26T06:58:17.937Z,69
2022-10-26T07:00:47.400Z,69
2022-10-26T07:03:16.847Z,69
2022-10-26T07:05:47.431Z,69
2022-10-26T07:08:17.149Z,69
2022-10-26T07:10:48.894Z,68
2022-10-26T07:13:19.290Z,69
2022-10-26T07:15:48.648Z,68
2022-10-26T07:18:18.827Z,68
2022-10-26T07:20:49.529Z,68
2022-10-26T07:23:19.994Z,68
2022-10-26T07:25:50.571Z,68
2022-10-26T07:28:22.956Z,68
2022-10-26T07:30:56.139Z,68
2022-10-26T07:33:24.789Z,68
2022-10-26T07:35:55.748Z,68
2022-10-26T07:38:26.608Z,68
2022-10-26T07:40:57.224Z,68
2022-10-26T07:43:26.226Z,68
2022-10-26T07:45:57.865Z,68
2022-10-26T07:48:29.511Z,68
2022-10-26T07:51:02.462Z,68
2022-10-26T07:53:29.340Z,68
2022-10-26T07:56:00.034Z,68
2022-10-26T07:58:29.266Z,69
2022-10-26T08:01:00.343Z,68
2022-10-26T08:03:30.839Z,68
2022-10-26T08:06:00.211Z,67
2022-10-26T08:08:31.696Z,67
2022-10-26T08:11:02.387Z,67
2022-10-26T08:13:33.248Z,67
2022-10-26T08:16:03.988Z,66
2022-10-26T08:18:35.015Z,66
2022-10-26T08:21:10.284Z,66
2022-10-26T08:23:35.845Z,66
2022-10-26T08:26:04.592Z,65
2022-10-26T08:28:35.071Z,65
2022-10-26T08:31:05.420Z,65
2022-10-26T08:33:36.679Z,65
2022-10-26T08:36:07.883Z,65
2022-10-26T08:38:36.984Z,65
2022-10-26T08:41:08.518Z,65
2022-10-26T08:43:39.037Z,64
2022-10-26T08:46:10.815Z,64
2022-10-26T08:48:42.220Z,64
2022-10-26T08:51:12.646Z,64
2022-10-26T08:53:43.380Z,64
2022-10-26T08:56:15.761Z,64
2022-10-26T08:58:46.845Z,62
2022-10-26T09:01:18.042Z,62
2022-10-26T09:03:47.167Z,62
2022-10-26T09:06:18.767Z,62
2022-10-26T09:08:49.114Z,61
2022-10-26T09:11:18.060Z,61
2022-10-26T09:13:48.553Z,62
2022-10-26T09:16:19.363Z,62
2022-10-26T09:18:50.107Z,62
2022-10-26T09:21:21.752Z,60
2022-10-26T09:23:52.730Z,61
2022-10-26T09:26:23.340Z,60
2022-10-26T09:28:54.011Z,59
2022-10-26T09:31:24.503Z,58
2022-10-26T09:33:55.315Z,58
2022-10-26T09:36:25.700Z,58
2022-10-26T09:38:56.984Z,57
2022-10-26T09:41:31.974Z,56
2022-10-26T09:44:00.568Z,56
2022-10-26T09:46:30.788Z,55
2022-10-26T09:51:34.413Z,54
2022-10-26T09:54:05.744Z,54
2022-10-26T09:56:37.065Z,54
2022-10-26T09:59:08.132Z,52
2022-10-26T10:01:41.417Z,53
2022-10-26T10:04:10.217Z,54
2022-10-26T10:06:40.864Z,53
2022-10-26T10:09:11.448Z,53
2022-10-26T10:11:42.129Z,53
2022-10-26T10:14:14.075Z,54
2022-10-26T10:16:50.078Z,51
2022-10-26T10:19:24.096Z,52
2022-10-26T10:21:54.559Z,52
2022-10-26T10:24:24.999Z,52
2022-10-26T10:26:55.947Z,52
2022-10-26T10:29:26.434Z,51
2022-10-26T10:31:57.082Z,51
2022-10-26T10:34:27.664Z,51
2022-10-26T10:36:58.525Z,51
2022-10-26T10:39:29.310Z,52
2022-10-26T10:42:00.498Z,52
2022-10-26T10:44:32.612Z,51
2022-10-26T10:47:02.928Z,51
2022-10-26T10:49:33.435Z,52
2022-10-26T10:52:02.838Z,51
2022-10-26T10:54:31.680Z,50
2022-10-26T10:57:02.255Z,50
2022-10-26T10:59:32.888Z,49
2022-10-26T11:02:03.921Z,50
2022-10-26T11:04:34.715Z,50
2022-10-26T11:07:05.274Z,48
2022-10-26T11:09:35.777Z,47
2022-10-26T11:12:07.277Z,49
2022-10-26T11:14:37.744Z,48
2022-10-26T11:17:09.745Z,49
2022-10-26T11:19:40.407Z,49
2022-10-26T11:22:10.998Z,49
2022-10-26T11:24:42.376Z,50
2022-10-26T11:27:13.481Z,50
2022-10-26T11:29:47.515Z,49
2022-10-26T11:32:13.781Z,49
2022-10-26T11:34:44.812Z,49
2022-10-26T11:37:15.361Z,50
2022-10-26T11:39:45.563Z,49
2022-10-26T11:42:16.253Z,48
2022-10-26T11:44:51.937Z,48
2022-10-26T11:47:18.082Z,48
2022-10-26T11:49:49.439Z,47
2022-10-26T11:52:21.146Z,49
2022-10-26T11:54:51.408Z,49
2022-10-26T11:57:21.760Z,49
2022-10-26T11:59:52.483Z,48
2022-10-26T12:02:22.824Z,47
2022-10-26T12:04:53.087Z,48
2022-10-26T12:07:23.919Z,48
2022-10-26T12:09:54.457Z,49
2022-10-26T12:12:24.761Z,47
2022-10-26T12:14:55.373Z,45
2022-10-26T12:17:26.039Z,46
2022-10-26T12:19:56.948Z,46
2022-10-26T12:22:27.468Z,47
2022-10-26T12:24:57.934Z,45
2022-10-26T12:27:28.913Z,47
2022-10-26T12:29:59.690Z,47
2022-10-26T12:32:29.910Z,47
2022-10-26T12:35:00.903Z,48
2022-10-26T12:37:31.754Z,50
2022-10-26T12:40:02.446Z,50
2022-10-26T12:42:33.260Z,49
2022-10-26T12:45:04.304Z,48
2022-10-26T12:47:37.087Z,48
2022-10-26T12:50:07.899Z,48
2022-10-26T12:52:38.423Z,48
2022-10-26T12:55:10.405Z,48
2022-10-26T12:57:42.308Z,48
2022-10-26T13:00:14.107Z,49
2022-10-26T13:02:44.924Z,49
2022-10-26T13:05:15.661Z,48
2022-10-26T13:07:44.887Z,49
2022-10-26T13:10:16.019Z,48
2022-10-26T13:12:48.026Z,49
2022-10-26T13:15:18.367Z,48
2022-10-26T13:17:50.107Z,49
2022-10-26T13:20:20.755Z,48
2022-10-26T13:22:51.437Z,49
2022-10-26T13:25:21.595Z,49
2022-10-26T13:27:52.802Z,47
2022-10-26T13:30:23.471Z,48
2022-10-26T13:32:54.368Z,48
2022-10-26T13:35:24.811Z,48
2022-10-26T13:37:55.222Z,48
2022-10-26T13:40:27.030Z,49
2022-10-26T13:42:57.837Z,49
2022-10-26T13:45:28.795Z,48
2022-10-26T16:16:32.768Z,57
2022-10-26T16:19:25.847Z,58
2022-10-26T16:21:36.585Z,57
2022-10-26T16:24:16.625Z,57
2022-10-26T16:26:47.865Z,57
2022-10-26T16:29:18.890Z,57
2022-10-26T16:31:56.325Z,56
2022-10-26T16:34:30.724Z,56
2022-10-26T16:37:01.970Z,57
2022-10-26T16:39:33.538Z,56
2022-10-26T16:42:05.293Z,56
2022-10-26T16:44:40.390Z,57
2022-10-26T16:47:11.471Z,57
2022-10-26T16:49:46.766Z,57
2022-10-26T16:52:17.818Z,57
2022-10-26T16:54:48.812Z,57
2022-10-26T16:57:19.882Z,57
2022-10-26T16:59:50.677Z,57
2022-10-26T17:02:21.979Z,57
2022-10-26T17:04:53.051Z,57
2022-10-26T17:07:24.188Z,56
2022-10-26T17:09:56.613Z,57
2022-10-26T17:12:28.400Z,57
2022-10-26T17:14:59.749Z,57
2022-10-26T17:17:31.103Z,57
2022-10-26T17:20:04.504Z,57
2022-10-26T17:22:35.552Z,58
2022-10-26T17:25:11.721Z,57
2022-10-26T17:27:44.942Z,57
2022-10-26T17:30:16.860Z,57
2022-10-26T17:32:49.015Z,58
2022-10-26T17:35:20.588Z,59
2022-10-26T17:37:51.853Z,59
2022-10-26T17:40:22.685Z,59
2022-10-26T17:42:54.507Z,59
2022-10-26T17:45:27.903Z,60
2022-10-26T17:47:59.010Z,60
2022-10-26T17:50:30.425Z,61
2022-10-26T17:53:02.128Z,60
2022-10-26T17:55:33.185Z,61
2022-10-26T17:58:04.186Z,61
2022-10-26T18:00:35.152Z,61
2022-10-26T18:03:06.252Z,61
2022-10-26T18:05:38.788Z,62
2022-10-26T18:08:10.169Z,62
2022-10-26T18:10:41.260Z,62
2022-10-26T18:13:13.508Z,62
2022-10-26T18:15:46.316Z,62
2022-10-26T18:18:17.585Z,63
2022-10-26T18:20:48.814Z,63
2022-10-26T18:23:24.055Z,63
2022-10-26T18:25:55.460Z,63
2022-10-26T18:28:26.962Z,63
2022-10-26T18:30:58.263Z,64
2022-10-26T18:33:30.071Z,64
2022-10-26T18:36:00.969Z,63
2022-10-26T18:38:32.278Z,63
2022-10-26T18:41:04.426Z,63
2022-10-26T18:43:36.503Z,63
2022-10-26T18:46:09.523Z,63
2022-10-26T18:48:40.841Z,63
2022-10-26T18:51:14.630Z,63
2022-10-26T18:53:46.817Z,62
2022-10-26T18:56:20.746Z,62
2022-10-26T18:58:52.562Z,62
2022-10-26T19:01:24.273Z,62
2022-10-26T19:03:55.378Z,62
2022-10-26T19:06:27.659Z,63
2022-10-26T19:09:00.187Z,63
2022-10-26T19:11:31.620Z,63
2022-10-26T19:14:08.741Z,62
2022-10-26T19:16:45.657Z,62
2022-10-26T19:19:12.312Z,62
2022-10-26T19:21:43.711Z,62
2022-10-26T19:24:16.894Z,62
2022-10-26T19:26:50.801Z,62
2022-10-26T19:29:26.484Z,63
2022-10-26T19:31:58.456Z,63
2022-10-26T19:34:29.925Z,63
2022-10-26T19:37:01.038Z,63
2022-10-26T19:39:33.079Z,63
2022-10-26T19:42:04.549Z,63
2022-10-26T19:44:37.830Z,63
2022-10-26T19:47:09.403Z,63
2022-10-26T19:49:40.853Z,63
2022-10-26T19:52:12.297Z,63
2022-10-26T19:54:45.384Z,64
2022-10-26T19:57:15.161Z,64
2022-10-26T19:59:46.607Z,64
2022-10-26T20:02:18.934Z,64
2022-10-26T20:04:50.683Z,64
2022-10-26T20:07:24.022Z,64
2022-10-26T20:09:55.122Z,64
2022-10-26T20:12:25.877Z,64
2022-10-26T20:14:58.031Z,64
2022-10-26T20:17:29.451Z,64
2022-10-26T20:20:00.901Z,65
2022-10-26T20:22:32.086Z,65
2022-10-26T20:25:03.887Z,65
2022-10-26T20:27:39.958Z,66
2022-10-26T20:30:21.243Z,66
2022-10-26T20:32:54.123Z,65
2022-10-26T20:35:29.440Z,65
2022-10-26T20:38:01.365Z,64
2022-10-26T20:40:33.485Z,65
2022-10-26T20:43:05.445Z,65
2022-10-26T20:45:37.130Z,65
2022-10-26T20:48:08.860Z,65
2022-10-26T20:50:41.291Z,65
2022-10-26T20:53:12.828Z,65
2022-10-26T20:55:45.270Z,65
2022-10-26T20:58:16.822Z,65
2022-10-26T21:00:48.634Z,65
2022-10-26T21:03:19.725Z,65
2022-10-26T21:05:51.177Z,65
2022-10-26T21:08:23.334Z,65
2022-10-26T21:10:54.771Z,66
2022-10-26T21:13:26.223Z,67
2022-10-26T21:15:57.089Z,67
2022-10-26T21:18:29.128Z,66
2022-10-26T21:21:01.352Z,67
2022-10-26T21:23:32.745Z,67
2022-10-26T21:26:07.367Z,67
2022-10-26T21:28:39.126Z,68
2022-10-26T21:31:11.510Z,68
2022-10-26T21:33:45.007Z,68
2022-10-26T21:36:16.449Z,67
2022-10-26T21:38:47.797Z,67
2022-10-26T21:41:19.558Z,66
2022-10-26T21:43:55.924Z,66
2022-10-26T21:46:22.264Z,66
2022-10-26T21:48:55.579Z,66
2022-10-26T21:51:27.418Z,66
2022-10-26T21:54:01.517Z,66
2022-10-26T21:56:32.870Z,66
2022-10-26T21:59:04.145Z,66
2022-10-26T22:01:36.214Z,66
2022-10-26T22:04:07.306Z,66
2022-10-26T22:06:39.056Z,66
2022-10-26T22:09:10.404Z,66
2022-10-26T22:11:41.193Z,67
2022-10-26T22:14:12.589Z,67
2022-10-26T22:16:43.955Z,68
2022-10-26T22:19:15.328Z,68
2022-10-26T22:21:48.004Z,69
2022-10-26T22:24:20.777Z,69
2022-10-26T22:26:54.683Z,70
2022-10-26T22:29:27.086Z,70
2022-10-26T22:31:59.026Z,70
2022-10-26T22:34:30.183Z,70
2022-10-26T22:37:05.688Z,70
2022-10-26T22:39:36.577Z,70
2022-10-26T22:42:10.579Z,70
2022-10-26T22:44:41.972Z,70
2022-10-26T22:47:12.476Z,71
2022-10-26T22:49:43.594Z,71
2022-10-26T22:52:14.891Z,71
2022-10-26T22:54:45.402Z,71
2022-10-26T22:57:16.579Z,71
2022-10-26T22:59:47.228Z,70
2022-10-26T23:02:18.789Z,70
2022-10-26T23:04:50.087Z,69
2022-10-26T23:07:21.429Z,69
2022-10-26T23:09:52.327Z,69
2022-10-26T23:12:23.444Z,68
2022-10-26T23:14:55.950Z,68
2022-10-26T23:17:27.491Z,68
2022-10-26T23:19:58.480Z,69
2022-10-26T23:22:29.790Z,69
2022-10-26T23:25:01.565Z,69
2022-10-26T23:27:35.861Z,69
2022-10-26T23:30:07.888Z,69
2022-10-26T23:32:41.764Z,68
2022-10-26T23:35:13.288Z,69
2022-10-26T23:37:44.776Z,69
2022-10-26T23:40:16.044Z,69
2022-10-26T23:42:47.289Z,69
2022-10-26T23:45:18.843Z,69
2022-10-26T23:47:50.414Z,70
2022-10-26T23:50:21.441Z,70
2022-10-26T23:52:52.927Z,69
2022-10-26T23:55:24.489Z,69
2022-10-26T23:57:56.021Z,69
